Time;durP1;ratioP1;P1;durP2;ratioP2;P2;SDS_P1;SDS_P2;PMS_P1;PMS_P2;Temp;Humidity;BMP_temperature;BMP_pressure;BME280_temperature;BME280_humidity;BME280_pressure;Samples;Min_cycle;Max_cycle;Signal;HPM_P1;HPM_P2
2021/05/24 00:00:46;;;;;;;11.80;8.83;;;;;;;20.17;62.07;95149.00;5096214;28;20525;-84
2021/05/24 00:03:12;;;;;;;10.40;6.27;;;;;;;20.13;62.31;95158.38;5096505;28;20436;-84
2021/05/24 00:05:40;;;;;;;6.30;4.63;;;;;;;19.05;66.95;95151.38;5095498;28;20501;-86
2021/05/24 00:08:07;;;;;;;5.37;3.90;;;;;;;18.94;68.08;95153.63;5095301;28;20448;-85
2021/05/24 00:10:36;;;;;;;5.40;4.37;;;;;;;19.09;67.23;95152.72;5094638;28;20458;-84
2021/05/24 00:13:05;;;;;;;5.23;4.00;;;;;;;19.23;67.20;95152.97;5094682;28;20439;-84
2021/05/24 00:15:34;;;;;;;8.03;4.83;;;;;;;19.16;67.42;95152.84;5095127;28;20969;-85
2021/05/24 00:18:01;;;;;;;6.17;4.20;;;;;;;19.02;68.38;95157.06;5060957;28;20464;-84
2021/05/24 00:20:31;;;;;;;6.70;4.10;;;;;;;19.03;68.33;95153.41;5098115;28;20978;-85
2021/05/24 00:22:58;;;;;;;7.13;4.70;;;;;;;19.08;68.22;95144.88;5095220;28;20458;-85
2021/05/24 00:25:25;;;;;;;5.40;4.50;;;;;;;19.04;68.85;95159.56;5094949;28;20497;-85
2021/05/24 00:27:52;;;;;;;4.83;4.33;;;;;;;18.94;69.06;95169.59;5094860;28;20885;-85
2021/05/24 00:30:19;;;;;;;6.80;6.10;;;;;;;18.83;69.60;95174.31;5059275;28;20936;-85
2021/05/24 00:32:45;;;;;;;6.80;4.30;;;;;;;18.83;69.46;95162.84;5059066;28;20442;-84
2021/05/24 00:35:13;;;;;;;5.73;4.70;;;;;;;18.87;69.56;95178.28;5094887;28;20564;-85
2021/05/24 00:37:40;;;;;;;5.40;4.90;;;;;;;18.92;69.86;95188.38;5099075;28;20447;-85
2021/05/24 00:40:10;;;;;;;5.90;4.70;;;;;;;18.90;69.76;95182.41;5094705;28;20511;-84
2021/05/24 00:42:37;;;;;;;8.60;4.60;;;;;;;18.92;69.54;95182.22;5059588;28;20453;-84
2021/05/24 00:45:04;;;;;;;6.33;5.27;;;;;;;18.94;69.39;95188.22;5094766;28;20476;-85
2021/05/24 00:47:31;;;;;;;5.27;4.77;;;;;;;18.94;69.30;95210.31;5096465;28;20936;-85
2021/05/24 00:49:57;;;;;;;6.27;4.80;;;;;;;18.76;69.86;95233.63;5097848;28;20793;-84
2021/05/24 00:52:24;;;;;;;5.50;5.00;;;;;;;18.77;70.18;95229.97;5095596;28;20490;-85
2021/05/24 00:54:50;;;;;;;8.93;5.00;;;;;;;18.79;70.12;95236.81;5094529;28;20436;-85
2021/05/24 00:57:17;;;;;;;5.73;5.23;;;;;;;18.82;70.29;95246.28;5094258;28;20445;-85
2021/05/24 00:59:43;;;;;;;6.67;4.17;;;;;;;18.83;70.63;95234.63;5094039;28;20966;-85
2021/05/24 01:02:10;;;;;;;5.27;4.70;;;;;;;18.83;70.25;95221.34;5093840;28;20436;-85
2021/05/24 01:04:36;;;;;;;6.30;4.27;;;;;;;18.75;70.09;95224.00;5075718;28;20437;-85
2021/05/24 01:07:04;;;;;;;7.30;5.10;;;;;;;18.65;70.44;95236.69;5093969;28;20447;-85
2021/05/24 01:09:31;;;;;;;5.90;5.07;;;;;;;18.56;70.77;95236.69;5094341;28;20535;-84
2021/05/24 01:11:58;;;;;;;5.83;4.97;;;;;;;18.45;71.22;95234.38;5094398;28;20448;-85
2021/05/24 01:14:26;;;;;;;13.83;4.90;;;;;;;18.38;71.70;95240.53;5094575;28;20459;-83
2021/05/24 01:16:54;;;;;;;5.07;3.40;;;;;;;18.37;71.71;95237.06;5093933;28;20431;-84
2021/05/24 01:19:22;;;;;;;5.10;4.60;;;;;;;18.37;71.81;95233.56;5093636;28;20436;-84
2021/05/24 01:21:49;;;;;;;7.07;4.40;;;;;;;18.38;71.51;95236.06;5093755;28;20443;-84
2021/05/24 01:24:18;;;;;;;10.23;5.03;;;;;;;18.42;71.77;95244.50;5094185;28;20454;-84
2021/05/24 01:26:45;;;;;;;5.30;4.47;;;;;;;18.46;71.62;95246.66;5097991;28;20421;-83
2021/05/24 01:29:12;;;;;;;6.63;4.50;;;;;;;18.47;71.52;95243.00;5079281;28;20436;-84
2021/05/24 01:31:38;;;;;;;4.90;4.40;;;;;;;18.50;71.43;95252.44;5097443;28;20443;-84
2021/05/24 01:34:05;;;;;;;5.63;4.87;;;;;;;18.52;71.43;95248.66;5029194;28;20504;-85
2021/05/24 01:36:32;;;;;;;5.57;4.50;;;;;;;18.50;71.25;95248.00;5098174;28;20811;-84
2021/05/24 01:38:59;;;;;;;6.37;5.50;;;;;;;18.51;71.76;95254.97;5097753;28;20444;-84
2021/05/24 01:41:26;;;;;;;6.20;4.50;;;;;;;18.46;71.93;95251.97;5098005;28;20488;-85
2021/05/24 01:43:52;;;;;;;4.83;3.93;;;;;;;18.40;72.07;95260.63;5098268;28;20421;-84
2021/05/24 01:46:19;;;;;;;13.13;4.37;;;;;;;18.32;72.02;95249.19;5097792;28;20436;-84
2021/05/24 01:48:45;;;;;;;5.73;4.80;;;;;;;18.34;72.19;95257.81;5062183;28;20455;-85
2021/05/24 01:51:12;;;;;;;5.10;4.30;;;;;;;18.34;72.36;95253.34;5099545;28;20432;-84
2021/05/24 01:53:38;;;;;;;5.13;4.70;;;;;;;18.31;72.72;95255.50;5098079;28;20444;-84
2021/05/24 01:56:06;;;;;;;6.97;5.37;;;;;;;18.23;72.67;95251.03;5097789;28;20481;-84
2021/05/24 01:58:33;;;;;;;6.77;4.97;;;;;;;18.16;73.02;95265.97;5097786;28;20511;-84
2021/05/24 02:01:05;;;;;;;6.63;4.53;;;;;;;18.14;72.95;95263.47;5097402;28;20970;-85
2021/05/24 02:03:31;;;;;;;8.33;4.90;;;;;;;18.08;73.65;95263.31;5096955;28;20440;-84
2021/05/24 02:06:00;;;;;;;5.95;4.82;;;;;;;18.10;73.72;95278.09;5097352;28;20433;-85
2021/05/24 02:08:26;;;;;;;5.63;5.13;;;;;;;18.13;73.31;95276.91;5097445;28;20197;-84
2021/05/24 02:10:53;;;;;;;8.10;4.70;;;;;;;18.11;73.28;95277.09;5097568;28;20441;-84
2021/05/24 02:13:20;;;;;;;5.37;4.90;;;;;;;18.14;73.35;95271.44;5097317;28;20456;-84
2021/05/24 02:15:47;;;;;;;5.20;4.10;;;;;;;18.14;73.53;95275.94;5097146;28;20432;-84
2021/05/24 02:18:13;;;;;;;7.53;4.33;;;;;;;18.14;73.58;95273.28;5097281;28;20444;-84
2021/05/24 02:20:40;;;;;;;4.73;3.90;;;;;;;18.11;73.46;95271.78;5097418;28;20491;-84
2021/05/24 02:23:09;;;;;;;5.97;4.87;;;;;;;18.08;72.95;95273.94;5097466;28;20487;-85
2021/05/24 02:25:35;;;;;;;4.60;4.20;;;;;;;18.01;73.18;95270.31;5096962;28;20451;-85
2021/05/24 02:28:01;;;;;;;6.30;4.17;;;;;;;18.06;73.39;95287.38;5097056;28;20433;-85
2021/05/24 02:30:29;;;;;;;5.17;4.37;;;;;;;18.09;73.38;95287.06;5096834;28;20438;-84
2021/05/24 02:32:56;;;;;;;4.30;4.00;;;;;;;18.07;73.11;95293.53;5097261;28;20438;-85
2021/05/24 02:35:26;;;;;;;11.97;5.00;;;;;;;18.07;73.07;95291.69;5097422;28;20476;-84
2021/05/24 02:37:53;;;;;;;4.97;3.53;;;;;;;18.00;73.18;95285.41;5095762;28;20448;-84
2021/05/24 02:40:21;;;;;;;4.90;4.40;;;;;;;18.02;72.88;95296.69;5096714;28;20503;-84
2021/05/24 02:42:47;;;;;;;5.30;3.77;;;;;;;18.02;72.60;95306.47;5097140;28;20437;-85
2021/05/24 02:45:15;;;;;;;4.60;4.10;;;;;;;17.99;73.17;95298.84;5097146;28;20881;-85
2021/05/24 02:47:44;;;;;;;6.30;4.27;;;;;;;17.97;72.97;95298.19;5097190;28;20445;-84
2021/05/24 02:50:13;;;;;;;6.53;4.37;;;;;;;17.90;73.06;95298.00;5097268;28;20438;-86
2021/05/24 02:52:40;;;;;;;5.17;4.47;;;;;;;17.86;73.39;95300.16;5097848;28;20476;-85
2021/05/24 02:55:08;;;;;;;6.83;5.47;;;;;;;17.84;73.33;95302.13;5099424;28;20441;-85
2021/05/24 02:57:35;;;;;;;6.23;4.60;;;;;;;17.84;73.61;95304.78;5061005;28;20432;-84
2021/05/24 03:00:01;;;;;;;11.50;4.40;;;;;;;17.79;73.31;95317.72;5096353;28;20839;-85
2021/05/24 03:02:30;;;;;;;6.73;4.50;;;;;;;17.74;73.61;95322.72;5096061;28;20466;-85
2021/05/24 03:04:57;;;;;;;4.03;3.73;;;;;;;17.75;73.70;95324.38;5096110;28;20444;-85
2021/05/24 03:07:24;;;;;;;8.20;4.00;;;;;;;17.80;73.33;95337.97;5060838;28;20501;-84
2021/05/24 03:09:50;;;;;;;10.10;4.70;;;;;;;17.85;73.45;95343.63;5096059;28;20476;-84
2021/05/24 03:12:17;;;;;;;5.33;4.50;;;;;;;17.90;73.89;95343.13;5095774;28;20474;-84
2021/05/24 03:14:43;;;;;;;11.40;4.53;;;;;;;17.95;73.15;95348.81;5095833;28;20440;-85
2021/05/24 03:17:10;;;;;;;6.13;5.07;;;;;;;17.95;73.04;95352.28;5096281;28;20534;-84
2021/05/24 03:19:36;;;;;;;7.10;4.47;;;;;;;17.92;72.44;95341.13;5095362;28;20442;-85
2021/05/24 03:22:04;;;;;;;7.63;4.43;;;;;;;17.99;72.45;95349.31;5095913;28;20459;-85
2021/05/24 03:24:30;;;;;;;8.97;4.37;;;;;;;18.10;71.30;95355.13;5095963;28;20429;-85
2021/05/24 03:26:56;;;;;;;12.23;3.90;;;;;;;18.22;71.29;95366.25;5095601;28;21174;-85
2021/05/24 03:29:23;;;;;;;7.27;3.70;;;;;;;18.35;71.11;95374.56;5095636;28;20478;-85
2021/05/24 03:31:50;;;;;;;4.03;3.47;;;;;;;18.44;70.51;95370.91;5095841;28;21020;-84
2021/05/24 03:34:17;;;;;;;7.07;4.50;;;;;;;18.58;70.14;95378.22;5095782;28;20554;-85
2021/05/24 03:36:43;;;;;;;7.53;4.00;;;;;;;18.75;69.87;95389.69;5095690;28;20540;-85
2021/05/24 03:39:10;;;;;;;8.50;3.80;;;;;;;18.87;68.98;95385.69;5095866;28;20570;-85
2021/05/24 03:41:37;;;;;;;8.83;3.90;;;;;;;19.03;68.96;95402.59;5095868;28;20481;-85
2021/05/24 03:44:04;;;;;;;11.40;3.90;;;;;;;19.18;68.22;95407.06;5095787;28;20459;-85
2021/05/24 03:46:30;;;;;;;6.87;4.13;;;;;;;19.44;67.48;95401.50;5061419;28;20462;-85
2021/05/24 03:48:59;;;;;;;5.27;4.10;;;;;;;19.67;66.19;95398.97;5096768;28;20457;-84
2021/05/24 03:51:26;;;;;;;4.77;4.37;;;;;;;20.03;65.29;95417.91;5095741;28;20490;-84
2021/05/24 03:53:53;;;;;;;6.90;4.07;;;;;;;20.31;64.17;95418.25;5095810;28;21029;-84
2021/05/24 03:56:20;;;;;;;4.70;3.77;;;;;;;20.63;63.56;95419.03;5095859;28;20476;-84
2021/05/24 03:58:46;;;;;;;11.63;4.30;;;;;;;20.93;62.45;95420.78;5095730;28;20463;-85
2021/05/24 04:01:13;;;;;;;10.30;4.67;;;;;;;21.24;61.75;95434.03;5095258;28;20977;-85
2021/05/24 04:03:39;;;;;;;7.57;4.27;;;;;;;21.48;61.01;95432.94;5095230;28;20442;-85
2021/05/24 04:06:06;;;;;;;9.63;4.77;;;;;;;21.71;60.36;95426.69;5094903;28;20467;-85
2021/05/24 04:08:36;;;;;;;12.13;4.87;;;;;;;21.89;57.70;95427.94;5095704;28;20491;-85
2021/05/24 04:11:04;;;;;;;7.00;3.57;;;;;;;22.18;57.78;95427.06;5095923;28;20854;-84
2021/05/24 04:13:32;;;;;;;5.10;3.00;;;;;;;22.44;56.97;95436.41;5095773;28;20494;-85
2021/05/24 04:15:58;;;;;;;5.80;2.57;;;;;;;22.39;55.27;95433.47;5095897;28;21012;-86
2021/05/24 04:18:27;;;;;;;4.03;2.77;;;;;;;22.37;55.92;95440.88;5096546;28;20795;-86
2021/05/24 04:20:53;;;;;;;3.03;2.50;;;;;;;22.23;55.94;95430.00;5096239;28;20468;-85
2021/05/24 04:23:20;;;;;;;4.73;2.80;;;;;;;22.00;56.44;95440.00;5096494;28;20992;-85
2021/05/24 04:25:47;;;;;;;5.17;2.80;;;;;;;21.72;57.53;95444.38;5096557;28;20449;-85
2021/05/24 04:28:13;;;;;;;3.10;2.87;;;;;;;21.38;58.57;95448.38;5097220;28;20458;-85
2021/05/24 04:30:41;;;;;;;4.70;2.67;;;;;;;21.15;59.65;95452.94;5096643;28;20459;-85
2021/05/24 04:33:07;;;;;;;4.70;3.43;;;;;;;21.04;60.06;95448.84;5096291;28;20420;-85
2021/05/24 04:35:34;;;;;;;4.23;2.57;;;;;;;21.01;60.36;95450.06;5095951;28;20483;-86
2021/05/24 04:38:00;;;;;;;7.40;3.07;;;;;;;21.02;60.03;95441.03;5096654;28;20450;-86
2021/05/24 04:40:27;;;;;;;4.33;2.80;;;;;;;21.19;60.04;95448.91;5096559;28;20483;-85
2021/05/24 04:42:54;;;;;;;5.50;3.17;;;;;;;21.40;59.23;95448.22;5095730;28;20941;-85
2021/05/24 04:45:21;;;;;;;5.27;2.53;;;;;;;21.49;58.98;95450.63;5096714;28;20450;-85
2021/05/24 04:47:49;;;;;;;4.77;3.10;;;;;;;21.60;58.86;95452.81;5098571;28;20451;-85
2021/05/24 04:50:16;;;;;;;5.10;2.83;;;;;;;21.72;58.36;95452.38;5097416;28;20466;-86
2021/05/24 04:52:42;;;;;;;7.67;2.73;;;;;;;21.81;58.35;95461.94;5096329;28;20441;-84
2021/05/24 04:55:10;;;;;;;4.90;2.90;;;;;;;21.89;57.56;95454.66;5077490;28;20443;-85
2021/05/24 04:57:37;;;;;;;5.63;3.30;;;;;;;21.95;57.62;95459.25;5096668;28;20497;-85
2021/05/24 05:00:05;;;;;;;4.73;2.90;;;;;;;22.18;57.66;95469.03;5095373;28;20498;-85
2021/05/24 05:02:31;;;;;;;7.47;2.60;;;;;;;22.32;57.12;95478.88;5095978;28;20438;-85
2021/05/24 05:04:59;;;;;;;7.50;2.67;;;;;;;22.53;56.45;95472.72;5095926;28;20434;-84
2021/05/24 05:07:27;;;;;;;11.00;3.00;;;;;;;22.75;55.42;95477.06;5095981;28;20449;-85
2021/05/24 05:09:53;;;;;;;5.03;2.87;;;;;;;22.75;55.24;95485.09;5096561;28;20934;-86
2021/05/24 05:12:20;;;;;;;4.47;2.27;;;;;;;22.76;55.38;95488.59;5095993;28;20459;-85
2021/05/24 05:14:46;;;;;;;7.87;2.90;;;;;;;22.87;54.80;95493.50;5095912;28;20448;-85
2021/05/24 05:17:12;;;;;;;8.13;2.77;;;;;;;22.76;54.81;95500.13;5095911;28;20487;-85
2021/05/24 05:19:39;;;;;;;8.47;3.00;;;;;;;22.39;55.72;95503.00;5096188;28;20441;-85
2021/05/24 05:22:06;;;;;;;2.83;2.63;;;;;;;22.09;56.76;95513.75;5096371;28;20433;-85
2021/05/24 05:24:32;;;;;;;4.40;3.00;;;;;;;21.90;57.96;95530.31;5060483;28;20456;-84
2021/05/24 05:26:59;;;;;;;5.10;3.00;;;;;;;21.62;58.97;95528.25;5096426;28;20443;-85
2021/05/24 05:29:25;;;;;;;4.37;2.50;;;;;;;21.32;59.69;95527.38;5096163;28;20432;-86
2021/05/24 05:31:52;;;;;;;8.80;2.93;;;;;;;21.25;60.14;95536.28;5095916;28;20454;-86
2021/05/24 05:34:18;;;;;;;6.90;3.17;;;;;;;21.10;60.49;95530.03;5096225;28;20494;-85
2021/05/24 05:36:44;;;;;;;11.17;3.23;;;;;;;20.97;61.64;95539.47;5096849;28;20452;-86
2021/05/24 05:39:12;;;;;;;7.60;3.30;;;;;;;20.88;62.03;95531.72;5097089;28;20448;-84
2021/05/24 05:41:38;;;;;;;8.33;3.17;;;;;;;20.77;62.16;95532.94;5097824;28;20483;-86
2021/05/24 05:44:06;;;;;;;4.33;3.00;;;;;;;20.72;62.42;95543.31;5097533;28;20455;-86
2021/05/24 05:46:33;;;;;;;4.57;3.20;;;;;;;20.73;62.89;95536.97;5097875;28;20441;-86
2021/05/24 05:49:01;;;;;;;4.40;2.63;;;;;;;20.83;62.77;95531.44;5096901;28;20454;-86
2021/05/24 05:51:27;;;;;;;7.30;2.90;;;;;;;20.87;62.69;95541.56;5096134;28;20439;-85
2021/05/24 05:53:55;;;;;;;4.70;2.67;;;;;;;20.87;62.81;95535.41;5097469;28;20457;-86
2021/05/24 05:56:23;;;;;;;6.40;3.07;;;;;;;20.87;62.97;95543.41;5096685;28;20838;-84
2021/05/24 05:58:49;;;;;;;5.20;3.53;;;;;;;21.02;62.80;95539.78;5095893;28;20452;-85
2021/05/24 06:01:16;;;;;;;6.30;3.50;;;;;;;21.34;61.69;95552.06;5095821;28;20480;-85
2021/05/24 06:03:42;;;;;;;4.17;2.73;;;;;;;21.57;61.35;95553.88;5095681;28;20923;-85
2021/05/24 06:06:12;;;;;;;5.10;3.30;;;;;;;22.05;60.49;95559.75;5095308;28;21090;-85
2021/05/24 06:08:38;;;;;;;4.83;2.77;;;;;;;22.43;58.90;95560.47;5096157;28;20951;-84
2021/05/24 06:11:05;;;;;;;4.07;2.73;;;;;;;22.71;58.17;95558.75;5095486;28;20460;-85
2021/05/24 06:13:32;;;;;;;2.33;2.20;;;;;;;22.85;56.86;95565.94;5098425;28;20445;-83
2021/05/24 06:15:59;;;;;;;6.07;2.50;;;;;;;23.21;55.68;95554.34;5098662;28;20531;-85
2021/05/24 06:18:25;;;;;;;3.30;2.47;;;;;;;23.38;55.10;95539.66;5099473;28;20458;-85
2021/05/24 06:20:52;;;;;;;4.73;2.60;;;;;;;23.29;55.21;95538.16;5100099;28;20487;-85
2021/05/24 06:23:21;;;;;;;13.00;2.47;;;;;;;23.15;56.34;95541.75;5099334;28;20774;-85
2021/05/24 06:25:47;;;;;;;12.53;4.07;;;;;;;23.08;57.11;95546.19;5097395;28;20926;-86
2021/05/24 06:28:14;;;;;;;5.20;2.87;;;;;;;23.12;56.57;95536.75;5098973;28;20474;-86
2021/05/24 06:30:42;;;;;;;4.40;3.10;;;;;;;23.42;56.36;95550.84;5098344;28;20450;-84
2021/05/24 06:33:10;;;;;;;8.20;3.17;;;;;;;23.67;54.83;95546.72;5100151;28;20434;-84
2021/05/24 06:35:36;;;;;;;3.80;2.50;;;;;;;24.06;53.94;95550.72;5099082;28;20477;-85
2021/05/24 06:38:03;;;;;;;5.40;2.80;;;;;;;24.36;53.10;95548.66;5097737;28;20447;-84
2021/05/24 06:40:30;;;;;;;12.43;3.23;;;;;;;24.64;52.25;95537.81;5098082;28;20569;-85
2021/05/24 06:42:57;;;;;;;7.73;3.63;;;;;;;24.83;51.21;95552.31;5099115;28;20442;-86
2021/05/24 06:45:23;;;;;;;11.13;3.60;;;;;;;25.02;50.17;95547.03;5098126;28;20914;-86
2021/05/24 06:47:51;;;;;;;6.13;3.10;;;;;;;25.21;49.34;95556.19;5097861;28;20932;-83
2021/05/24 06:50:17;;;;;;;4.70;2.97;;;;;;;25.43;49.91;95554.13;5097125;28;20797;-83
2021/05/24 06:52:44;;;;;;;10.03;3.80;;;;;;;25.73;48.32;95548.34;5062259;28;20443;-84
2021/05/24 06:55:11;;;;;;;6.63;3.40;;;;;;;25.99;48.21;95534.06;5097602;28;20459;-85
2021/05/24 06:57:38;;;;;;;6.13;2.93;;;;;;;26.20;47.05;95520.34;5097210;28;20428;-85
2021/05/24 07:00:10;;;;;;;6.83;3.10;;;;;;;26.27;46.72;95542.69;5096983;28;20943;-84
2021/05/24 07:02:37;;;;;;;4.70;3.43;;;;;;;26.47;46.36;95537.28;5097117;28;20442;-85
2021/05/24 07:05:06;;;;;;;11.27;3.33;;;;;;;26.51;44.82;95536.63;5097561;28;20477;-83
2021/05/24 07:07:32;;;;;;;4.03;3.17;;;;;;;26.71;44.96;95547.31;5096711;28;20439;-84
2021/05/24 07:09:59;;;;;;;6.00;3.00;;;;;;;26.72;43.66;95543.59;5061717;28;20451;-84
2021/05/24 07:12:25;;;;;;;9.53;4.30;;;;;;;26.73;43.56;95547.94;5097204;28;20958;-84
2021/05/24 07:14:54;;;;;;;6.23;3.10;;;;;;;26.97;43.63;95541.00;5096921;28;20450;-84
2021/05/24 07:17:20;;;;;;;6.80;3.10;;;;;;;27.02;42.62;95535.81;5097027;28;20436;-83
2021/05/24 07:19:47;;;;;;;5.63;2.93;;;;;;;27.32;41.92;95538.72;5060590;28;20435;-84
2021/05/24 07:22:14;;;;;;;4.97;3.30;;;;;;;27.49;41.95;95533.63;5096272;28;20218;-84
2021/05/24 07:24:41;;;;;;;5.87;2.80;;;;;;;27.51;42.39;95528.84;5096430;28;20434;-84
2021/05/24 07:27:07;;;;;;;3.67;2.77;;;;;;;27.61;42.92;95537.25;5096689;28;20448;-85
2021/05/24 07:29:33;;;;;;;3.07;2.77;;;;;;;27.81;40.63;95539.00;5096516;28;20466;-85
2021/05/24 07:32:00;;;;;;;7.03;2.97;;;;;;;27.89;41.09;95538.69;5095840;28;20984;-85
2021/05/24 07:34:26;;;;;;;7.53;4.20;;;;;;;27.92;40.87;95538.25;5096202;28;20464;-85
2021/05/24 07:36:53;;;;;;;11.37;3.30;;;;;;;28.05;40.13;95544.38;5096589;28;20452;-85
2021/05/24 07:39:20;;;;;;;12.70;2.77;;;;;;;28.05;41.11;95554.34;5096896;28;20448;-84
2021/05/24 07:41:46;;;;;;;8.80;2.70;;;;;;;28.00;40.78;95551.44;5096613;28;21249;-85
2021/05/24 07:44:13;;;;;;;7.27;2.60;;;;;;;28.15;40.89;95546.53;5096565;28;20455;-86
2021/05/24 07:46:39;;;;;;;5.63;2.90;;;;;;;28.36;41.19;95550.72;5096839;28;20444;-85
2021/05/24 07:49:06;;;;;;;6.43;3.13;;;;;;;28.44;40.32;95553.13;5095305;28;20786;-85
2021/05/24 07:51:32;;;;;;;3.90;2.53;;;;;;;28.51;40.17;95555.72;5095444;28;20428;-85
2021/05/24 07:53:58;;;;;;;4.70;3.00;;;;;;;28.49;40.32;95545.16;5095615;28;20444;-85
2021/05/24 07:56:25;;;;;;;4.03;2.80;;;;;;;28.02;39.81;95549.34;5061516;28;20811;-85
2021/05/24 07:58:52;;;;;;;13.30;2.97;;;;;;;28.05;41.78;95546.25;5096648;28;20512;-86
2021/05/24 08:01:18;;;;;;;6.23;2.70;;;;;;;28.23;40.23;95548.94;5096274;28;20566;-84
2021/05/24 08:03:44;;;;;;;4.60;2.23;;;;;;;28.15;40.40;95541.16;5096737;28;21015;-86
2021/05/24 08:06:11;;;;;;;9.23;2.97;;;;;;;28.35;41.23;95539.09;5096979;28;20432;-85
2021/05/24 08:08:37;;;;;;;5.27;3.70;;;;;;;28.56;39.75;95545.06;5097124;28;20459;-85
2021/05/24 08:11:03;;;;;;;5.30;2.90;;;;;;;28.42;39.52;95544.41;5096985;28;20485;-84
2021/05/24 08:13:31;;;;;;;5.27;3.10;;;;;;;28.16;39.62;95541.97;5097563;28;21011;-85
2021/05/24 08:15:57;;;;;;;7.17;3.00;;;;;;;27.96;39.78;95550.25;5097170;28;20498;-85
2021/05/24 08:18:23;;;;;;;3.30;2.73;;;;;;;27.99;39.02;95536.31;5096414;28;20440;-84
2021/05/24 08:20:50;;;;;;;5.73;2.73;;;;;;;27.93;39.64;95539.91;5096640;28;20983;-84
2021/05/24 08:23:17;;;;;;;5.87;2.63;;;;;;;27.92;39.42;95540.94;5077728;28;20500;-84
2021/05/24 08:25:44;;;;;;;2.80;2.60;;;;;;;27.92;40.22;95540.94;5097464;28;20448;-86
2021/05/24 08:28:10;;;;;;;4.80;2.97;;;;;;;27.92;40.26;95549.06;5096414;28;20443;-85
2021/05/24 08:30:37;;;;;;;11.13;3.40;;;;;;;28.04;39.58;95536.47;5062049;28;20436;-87
2021/05/24 08:33:05;;;;;;;8.33;3.60;;;;;;;28.08;39.66;95545.78;5096875;28;20783;-85
2021/05/24 08:35:31;;;;;;;3.20;2.87;;;;;;;28.13;41.14;95535.16;5095847;28;20479;-85
2021/05/24 08:37:57;;;;;;;8.87;3.57;;;;;;;28.02;40.60;95541.25;5096614;28;20474;-84
2021/05/24 08:40:24;;;;;;;5.73;2.87;;;;;;;27.89;39.62;95538.69;5096234;28;20498;-85
2021/05/24 08:42:50;;;;;;;3.93;3.03;;;;;;;27.69;40.80;95531.59;5096394;28;20443;-85
2021/05/24 08:45:17;;;;;;;7.27;2.70;;;;;;;27.63;40.03;95529.78;5096203;28;20447;-85
2021/05/24 08:47:44;;;;;;;5.33;3.17;;;;;;;27.66;39.41;95520.44;5096180;28;20440;-84
2021/05/24 08:50:13;;;;;;;3.80;2.60;;;;;;;27.68;39.60;95516.47;5061041;28;20947;-84
2021/05/24 08:52:39;;;;;;;6.53;2.90;;;;;;;27.80;38.73;95507.66;5096544;28;20455;-86
2021/05/24 08:55:07;;;;;;;5.27;3.07;;;;;;;27.48;38.45;95499.63;5096255;28;20444;-86
2021/05/24 08:57:36;;;;;;;7.20;3.40;;;;;;;27.25;38.94;95510.16;5095658;28;20527;-85
2021/05/24 09:00:04;;;;;;;6.70;2.87;;;;;;;27.37;38.80;95500.31;5095989;28;20451;-86
2021/05/24 09:02:31;;;;;;;8.33;2.47;;;;;;;27.50;39.66;95496.72;5095822;28;20455;-84
2021/05/24 09:05:04;;;;;;;10.33;3.47;;;;;;;27.74;39.32;95507.50;5095595;28;20444;-86
2021/05/24 09:07:30;;;;;;;4.90;3.00;;;;;;;27.87;39.43;95501.16;5096341;28;20434;-86
2021/05/24 09:10:02;;;;;;;6.43;3.30;;;;;;;27.60;39.22;95503.25;5096867;28;20440;-86
2021/05/24 09:12:32;;;;;;;2.73;2.53;;;;;;;27.72;39.95;95500.66;5096241;28;20515;-86
2021/05/24 09:14:59;;;;;;;4.03;3.10;;;;;;;27.65;40.79;95495.34;5096414;28;20455;-85
2021/05/24 09:17:39;;;;;;;8.47;4.10;;;;;;;27.52;40.68;95487.34;5096040;28;20456;-85
2021/05/24 09:20:14;;;;;;;5.53;3.27;;;;;;;26.93;41.51;95480.50;5096152;28;20943;-87
2021/05/24 09:22:41;;;;;;;11.53;4.00;;;;;;;26.75;42.84;95477.72;5095397;28;21161;-86
2021/05/24 09:25:08;;;;;;;4.93;3.40;;;;;;;26.80;43.14;95469.81;5096394;28;20452;-86
2021/05/24 09:27:37;;;;;;;4.60;2.90;;;;;;;26.86;43.24;95461.66;5077053;28;20853;-86
2021/05/24 09:30:06;;;;;;;7.33;3.17;;;;;;;27.03;41.77;95461.19;5096107;28;20436;-85
2021/05/24 09:32:33;;;;;;;4.87;3.80;;;;;;;27.11;42.93;95471.69;5095999;28;20456;-85
2021/05/24 09:35:03;;;;;;;6.03;3.30;;;;;;;27.19;42.59;95468.75;5095704;28;20482;-86
2021/05/24 09:37:33;;;;;;;7.60;3.80;;;;;;;27.12;42.50;95465.25;5095670;28;20486;-85
2021/05/24 09:40:00;;;;;;;6.53;3.13;;;;;;;27.17;42.80;95473.50;5095801;28;20448;-85
2021/05/24 09:42:26;;;;;;;5.53;3.47;;;;;;;27.10;41.76;95470.03;5094962;28;20463;-85
2021/05/24 09:44:55;;;;;;;6.00;3.80;;;;;;;27.08;42.75;95475.66;5096019;28;20475;-85
2021/05/24 09:47:35;;;;;;;5.10;3.27;;;;;;;27.19;41.78;95467.94;5063962;28;20446;-86
2021/05/24 09:50:09;;;;;;;5.40;3.90;;;;;;;27.20;40.95;95464.19;5099618;28;20436;-85
2021/05/24 09:52:38;;;;;;;6.57;3.23;;;;;;;26.89;41.52;95464.97;5099870;28;20455;-85
2021/05/24 09:55:16;;;;;;;8.03;3.53;;;;;;;26.37;42.63;95465.06;5099825;28;20841;-85
2021/05/24 09:57:53;;;;;;;10.43;3.03;;;;;;;26.41;43.87;95460.91;5099428;28;20436;-85
2021/05/24 10:00:23;;;;;;;7.20;3.00;;;;;;;26.53;43.48;95464.56;5098920;28;20427;-85
2021/05/24 10:02:50;;;;;;;5.73;3.10;;;;;;;26.47;43.42;95460.03;5098256;28;20444;-85
2021/05/24 10:05:17;;;;;;;11.73;5.00;;;;;;;26.57;44.49;95445.28;5099487;28;20448;-85
2021/05/24 10:07:44;;;;;;;8.10;3.27;;;;;;;26.71;42.98;95452.25;5098379;28;20440;-85
2021/05/24 10:10:12;;;;;;;6.33;4.10;;;;;;;26.85;43.51;95448.41;5098135;28;20456;-85
2021/05/24 10:12:39;;;;;;;8.03;3.37;;;;;;;27.04;43.70;95446.69;5097224;28;20504;-84
2021/05/24 10:15:08;;;;;;;7.33;3.60;;;;;;;27.22;43.63;95440.53;5097709;28;20455;-84
2021/05/24 10:17:35;;;;;;;4.53;3.10;;;;;;;27.33;44.38;95439.81;5098133;28;20440;-85
2021/05/24 10:20:02;;;;;;;8.83;4.70;;;;;;;27.46;43.12;95436.97;5096548;28;20459;-84
2021/05/24 10:22:28;;;;;;;8.23;3.37;;;;;;;27.54;42.87;95431.34;5097851;28;20481;-86
2021/05/24 10:24:55;;;;;;;5.83;4.10;;;;;;;27.56;41.96;95434.63;5099508;28;20525;-86
2021/05/24 10:27:22;;;;;;;7.33;3.03;;;;;;;27.51;39.51;95439.03;5099413;28;20455;-85
2021/05/24 10:29:49;;;;;;;7.07;3.23;;;;;;;27.29;39.88;95441.31;5099228;28;20490;-85
2021/05/24 10:32:22;;;;;;;12.70;3.37;;;;;;;27.23;40.10;95439.50;5098691;28;20444;-85
2021/05/24 10:34:48;;;;;;;12.93;3.87;;;;;;;27.14;40.64;95434.34;5098918;28;20876;-84
2021/05/24 10:37:18;;;;;;;5.97;3.30;;;;;;;27.09;40.29;95436.06;5098641;28;20432;-85
2021/05/24 10:39:46;;;;;;;5.20;2.90;;;;;;;27.03;40.11;95431.56;5098304;28;20555;-86
2021/05/24 10:42:14;;;;;;;9.50;2.97;;;;;;;27.14;39.40;95426.28;5098651;28;20883;-85
2021/05/24 10:44:43;;;;;;;7.97;3.60;;;;;;;27.31;39.27;95434.66;5098206;28;20523;-85
2021/05/24 10:47:18;;;;;;;4.77;2.97;;;;;;;27.39;39.70;95431.66;5099084;28;20532;-85
2021/05/24 10:50:05;;;;;;;4.33;2.60;;;;;;;27.43;37.72;95432.03;5098557;28;20455;-85
2021/05/24 10:52:33;;;;;;;4.37;2.70;;;;;;;27.52;38.89;95433.44;5098629;28;20920;-85
2021/05/24 10:55:01;;;;;;;7.33;3.40;;;;;;;27.61;38.26;95431.25;5099108;28;20447;-85
2021/05/24 10:57:31;;;;;;;5.63;3.07;;;;;;;27.69;38.08;95425.59;5097688;28;20452;-85
2021/05/24 11:00:00;;;;;;;8.83;3.50;;;;;;;27.72;37.73;95419.75;5098604;28;20452;-85
2021/05/24 11:02:37;;;;;;;9.60;3.60;;;;;;;27.69;37.21;95421.03;5098248;28;20975;-85
2021/05/24 11:05:31;;;;;;;6.40;3.43;;;;;;;27.79;37.72;95409.75;5098273;28;20526;-85
2021/05/24 11:07:59;;;;;;;12.27;3.50;;;;;;;27.93;37.64;95407.72;5098538;28;20479;-86
2021/05/24 11:10:28;;;;;;;5.07;3.00;;;;;;;28.08;37.79;95397.38;5098087;28;20443;-86
2021/05/24 11:13:17;;;;;;;5.37;3.20;;;;;;;28.29;37.90;95396.91;5098687;28;20436;-86
2021/05/24 11:15:45;;;;;;;12.60;3.93;;;;;;;28.12;36.63;95395.88;5099209;28;21018;-87
2021/05/24 11:18:14;;;;;;;7.43;3.90;;;;;;;28.29;37.89;95391.50;5098179;28;20442;-86
2021/05/24 11:20:46;;;;;;;5.17;3.50;;;;;;;28.36;37.63;95399.53;5098080;28;20527;-85
2021/05/24 11:23:22;;;;;;;6.07;3.00;;;;;;;28.24;38.17;95402.16;5098472;28;20436;-86
2021/05/24 11:25:56;;;;;;;7.32;3.30;;;;;;;28.31;37.48;95393.97;5097790;28;20590;-86
2021/05/24 11:28:33;;;;;;;6.13;3.20;;;;;;;28.18;36.77;95397.66;5098135;28;20479;-85
2021/05/24 11:31:08;;;;;;;3.13;2.93;;;;;;;28.13;37.50;95402.91;5097828;28;20443;-85
2021/05/24 11:33:43;;;;;;;11.87;3.70;;;;;;;28.24;37.60;95391.38;5099095;28;20499;-85